Time;durP1;ratioP1;P1;durP2;ratioP2;P2;SDS_P1;SDS_P2;PMS_P1;PMS_P2;Temp;Humidity;BMP_temperature;BMP_pressure;BME280_temperature;BME280_humidity;BME280_pressure;Samples;Min_cycle;Max_cycle;Signal;HPM_P1;HPM_P2
2023/03/03 00:00:05;;;;;;;59.78;30.33;;;4.00;99.90;;;;;;4150405;28;20530;-64
2023/03/03 00:02:06;;;;;;;56.28;28.55;;;4.00;99.90;;;;;;4135352;28;20116;-64
2023/03/03 00:04:07;;;;;;;61.95;30.92;;;4.00;99.90;;;;;;4134124;28;20475;-64
2023/03/03 00:06:13;;;;;;;71.05;33.63;;;3.90;99.90;;;;;;4129904;28;20034;-64
2023/03/03 00:08:13;;;;;;;73.22;35.75;;;4.10;99.90;;;;;;4125923;28;20029;-64
2023/03/03 00:10:17;;;;;;;80.45;37.33;;;3.80;99.90;;;;;;4126405;28;20084;-64
2023/03/03 00:12:24;;;;;;;80.80;37.42;;;3.70;99.90;;;;;;4140745;28;20045;-64
2023/03/03 00:14:30;;;;;;;75.40;36.08;;;3.50;99.90;;;;;;4132057;28;20064;-63
2023/03/03 00:16:37;;;;;;;62.17;30.63;;;3.50;99.90;;;;;;4114407;28;20062;-64
2023/03/03 00:18:42;;;;;;;64.00;32.47;;;3.60;99.90;;;;;;4123400;28;20045;-64
2023/03/03 00:20:52;;;;;;;65.43;32.78;;;3.60;99.90;;;;;;4130792;28;20395;-64
2023/03/03 00:22:53;;;;;;;64.93;31.90;;;3.70;99.90;;;;;;4137240;28;20022;-64
2023/03/03 00:24:54;;;;;;;69.18;33.70;;;3.70;99.90;;;;;;4124108;28;20026;-64
2023/03/03 00:26:59;;;;;;;62.35;30.70;;;3.70;99.90;;;;;;4118002;28;20089;-64
2023/03/03 00:29:00;;;;;;;70.47;34.63;;;3.80;99.90;;;;;;4140868;28;20050;-64
2023/03/03 00:31:16;;;;;;;73.25;34.80;;;3.80;99.90;;;;;;4118185;28;20433;-64
2023/03/03 00:33:40;;;;;;;71.82;34.17;;;3.90;99.90;;;;;;4135331;28;20034;-64
2023/03/03 00:35:42;;;;;;;65.80;32.55;;;3.80;99.90;;;;;;4123764;28;20117;-64
2023/03/03 00:37:42;;;;;;;64.53;31.52;;;3.80;99.90;;;;;;4132541;28;20122;-64
2023/03/03 00:39:43;;;;;;;59.97;29.42;;;3.90;99.90;;;;;;4130826;28;20482;-64
2023/03/03 00:41:44;;;;;;;55.72;29.05;;;3.80;99.90;;;;;;4134110;28;20350;-64
2023/03/03 00:43:44;;;;;;;57.80;29.60;;;3.90;99.90;;;;;;4135522;28;20033;-64
2023/03/03 00:45:47;;;;;;;58.03;28.27;;;3.90;99.90;;;;;;4131269;28;20109;-64
2023/03/03 00:47:48;;;;;;;53.70;27.92;;;4.00;99.90;;;;;;4133237;28;20041;-64
2023/03/03 00:49:48;;;;;;;50.35;26.75;;;4.10;99.90;;;;;;4150189;28;20042;-64
2023/03/03 00:51:49;;;;;;;51.38;25.88;;;4.00;99.90;;;;;;4127439;28;20042;-64
2023/03/03 00:53:50;;;;;;;52.55;26.67;;;4.10;99.90;;;;;;4135900;28;20482;-63
2023/03/03 00:55:52;;;;;;;48.05;24.88;;;4.10;99.90;;;;;;4122230;28;20034;-64
2023/03/03 00:57:53;;;;;;;48.00;24.88;;;4.10;99.90;;;;;;4139231;28;20529;-64
2023/03/03 00:59:54;;;;;;;59.50;29.65;;;4.20;99.90;;;;;;4139868;28;20030;-64
2023/03/03 01:01:54;;;;;;;53.25;27.38;;;4.10;99.90;;;;;;4136459;28;20447;-64
2023/03/03 01:03:55;;;;;;;52.72;28.20;;;4.10;99.90;;;;;;4141245;28;20030;-64
2023/03/03 01:05:56;;;;;;;49.25;25.83;;;4.20;99.90;;;;;;4139329;28;20120;-64
2023/03/03 01:07:56;;;;;;;45.58;24.63;;;4.20;99.90;;;;;;4137833;28;20041;-64
2023/03/03 01:09:57;;;;;;;51.85;26.35;;;4.30;99.90;;;;;;4135668;28;20058;-64
2023/03/03 01:11:59;;;;;;;48.25;23.52;;;4.20;99.90;;;;;;4131864;28;20031;-64
2023/03/03 01:13:59;;;;;;;49.03;24.92;;;4.30;99.90;;;;;;4141519;28;20042;-64
2023/03/03 01:16:04;;;;;;;41.95;22.40;;;4.20;99.90;;;;;;4136042;28;20049;-64
2023/03/03 01:18:05;;;;;;;42.25;21.83;;;4.20;99.90;;;;;;4118238;28;20125;-64
2023/03/03 01:20:08;;;;;;;39.67;21.17;;;4.30;99.90;;;;;;4140965;28;20411;-64
2023/03/03 01:22:09;;;;;;;53.10;26.58;;;4.30;99.90;;;;;;4121432;28;20405;-64
2023/03/03 01:24:10;;;;;;;59.60;29.10;;;3.90;99.90;;;;;;4139622;28;20041;-64
2023/03/03 01:26:14;;;;;;;52.63;26.55;;;3.70;99.90;;;;;;4123225;28;20042;-65
2023/03/03 01:28:14;;;;;;;44.85;23.67;;;3.70;99.90;;;;;;4135781;28;20512;-64
2023/03/03 01:30:15;;;;;;;51.97;25.10;;;3.90;99.90;;;;;;4134851;28;20073;-64
2023/03/03 01:32:16;;;;;;;53.80;27.15;;;3.90;99.90;;;;;;4124853;28;20065;-64
2023/03/03 01:34:17;;;;;;;45.72;24.02;;;3.70;99.90;;;;;;4139867;28;20026;-64
2023/03/03 01:36:23;;;;;;;55.88;27.60;;;3.80;99.90;;;;;;4139110;28;20037;-64
2023/03/03 01:38:24;;;;;;;60.80;29.90;;;3.80;99.90;;;;;;4137886;28;20491;-64
2023/03/03 01:40:27;;;;;;;58.70;29.70;;;3.80;99.90;;;;;;4132891;28;20049;-64
2023/03/03 01:42:29;;;;;;;69.03;32.10;;;3.70;99.90;;;;;;4136064;28;20399;-64
2023/03/03 01:44:29;;;;;;;97.80;43.20;;;3.50;99.90;;;;;;4127963;28;20037;-64
2023/03/03 01:46:33;;;;;;;85.35;37.88;;;3.30;99.90;;;;;;4126835;28;20410;-64
2023/03/03 01:48:39;;;;;;;69.00;33.72;;;3.00;99.90;;;;;;4133369;28;20069;-64
2023/03/03 01:50:49;;;;;;;56.33;26.63;;;2.90;99.90;;;;;;4136952;28;20125;-64
2023/03/03 01:52:49;;;;;;;52.25;25.40;;;3.00;99.90;;;;;;4135591;28;20061;-64
2023/03/03 01:54:56;;;;;;;57.35;28.25;;;3.20;99.90;;;;;;4139170;28;20395;-64
2023/03/03 01:57:01;;;;;;;56.38;27.63;;;3.20;99.90;;;;;;4135756;28;20077;-64
2023/03/03 01:59:25;;;;;;;69.97;31.90;;;3.30;99.90;;;;;;4137993;28;20553;-65
2023/03/03 02:01:27;;;;;;;55.67;26.73;;;3.40;99.90;;;;;;4140173;28;20499;-64
2023/03/03 02:05:38;;;;;;;45.20;22.90;;;3.50;99.90;;;;;;4109873;28;20108;-62
2023/03/03 02:07:39;;;;;;;47.67;24.30;;;3.50;99.90;;;;;;4114895;28;20121;-63
2023/03/03 02:09:53;;;;;;;57.17;28.13;;;3.60;99.90;;;;;;4104427;28;20805;-62
2023/03/03 02:11:57;;;;;;;63.50;30.40;;;3.60;99.90;;;;;;4115231;28;20417;-62
2023/03/03 02:13:58;;;;;;;53.15;26.58;;;3.70;99.90;;;;;;4114333;28;20090;-62
2023/03/03 02:15:58;;;;;;;53.05;26.05;;;3.80;99.90;;;;;;4113305;28;20038;-62
2023/03/03 02:18:03;;;;;;;54.72;26.52;;;3.80;99.90;;;;;;4111976;28;20050;-62
2023/03/03 02:20:16;;;;;;;50.28;25.58;;;3.80;99.90;;;;;;4115411;28;20038;-63
2023/03/03 02:22:22;;;;;;;48.95;24.45;;;3.90;99.90;;;;;;4097723;28;20039;-62
2023/03/03 02:24:56;;;;;;;46.80;23.73;;;4.00;99.90;;;;;;4111102;28;20031;-62
2023/03/03 02:26:57;;;;;;;50.95;23.40;;;4.00;99.90;;;;;;4109643;28;20041;-62
2023/03/03 02:28:57;;;;;;;47.10;22.67;;;4.10;99.90;;;;;;4112509;28;20049;-62
2023/03/03 02:31:00;;;;;;;45.60;22.40;;;4.10;99.90;;;;;;4110527;28;20086;-62
2023/03/03 02:33:00;;;;;;;47.28;24.85;;;4.20;99.90;;;;;;4112159;28;20536;-62
2023/03/03 02:35:01;;;;;;;51.00;25.30;;;4.20;99.90;;;;;;4110944;28;20050;-62
2023/03/03 02:37:02;;;;;;;47.08;24.20;;;4.20;99.90;;;;;;4111733;28;20038;-62
2023/03/03 02:39:09;;;;;;;51.97;24.92;;;4.20;99.90;;;;;;4112336;28;20070;-63
2023/03/03 02:41:42;;;;;;;52.38;25.75;;;4.30;99.90;;;;;;4111434;28;20555;-62
2023/03/03 02:43:54;;;;;;;49.40;23.90;;;4.20;99.90;;;;;;4109072;28;20405;-63
2023/03/03 02:45:55;;;;;;;51.67;26.25;;;4.20;99.90;;;;;;4094361;28;20354;-62
2023/03/03 02:47:55;;;;;;;53.00;25.92;;;4.20;99.90;;;;;;4113046;28;20512;-62
2023/03/03 02:49:56;;;;;;;51.38;24.35;;;4.20;99.90;;;;;;4112686;28;20039;-62
2023/03/03 02:51:57;;;;;;;49.53;24.85;;;4.30;99.90;;;;;;4112515;28;20085;-62
2023/03/03 02:53:58;;;;;;;48.13;24.80;;;4.30;99.90;;;;;;4111686;28;20045;-62
2023/03/03 02:55:59;;;;;;;44.80;23.13;;;4.30;99.90;;;;;;4113589;28;20541;-62
2023/03/03 02:57:59;;;;;;;51.92;25.10;;;4.20;99.90;;;;;;4094862;28;20047;-63
2023/03/03 03:00:00;;;;;;;59.95;26.98;;;3.90;99.90;;;;;;4111765;28;20059;-63
2023/03/03 03:02:00;;;;;;;54.33;24.60;;;3.90;99.90;;;;;;4112907;28;20069;-62
2023/03/03 03:04:06;;;;;;;58.92;28.45;;;3.90;99.90;;;;;;4110300;28;20054;-62
2023/03/03 03:06:07;;;;;;;52.42;24.45;;;3.90;99.90;;;;;;4109929;28;20469;-62
2023/03/03 03:08:08;;;;;;;62.33;27.50;;;3.90;99.90;;;;;;4116225;28;20042;-63
2023/03/03 03:10:09;;;;;;;61.97;26.40;;;3.80;99.90;;;;;;4110555;28;20454;-63
2023/03/03 03:12:10;;;;;;;58.55;25.67;;;3.90;99.90;;;;;;4109981;28;20096;-62
2023/03/03 03:14:12;;;;;;;80.65;34.28;;;3.80;99.90;;;;;;4113700;28;20097;-62
2023/03/03 03:16:13;;;;;;;71.30;30.77;;;3.80;99.90;;;;;;4091717;28;20554;-63
2023/03/03 03:18:14;;;;;;;60.90;26.70;;;3.70;99.90;;;;;;4111491;28;20082;-62
2023/03/03 03:20:14;;;;;;;57.97;25.67;;;3.70;99.90;;;;;;4112483;28;20043;-63
2023/03/03 03:22:15;;;;;;;65.85;28.15;;;3.70;99.90;;;;;;4112548;28;20047;-63
2023/03/03 03:24:17;;;;;;;63.33;27.58;;;3.70;99.90;;;;;;4116682;28;20043;-63
2023/03/03 03:26:19;;;;;;;73.70;30.73;;;3.60;99.90;;;;;;4111479;28;20038;-62
2023/03/03 03:28:20;;;;;;;69.43;29.88;;;3.30;99.90;;;;;;4111109;28;20121;-62
2023/03/03 03:30:21;;;;;;;67.30;28.98;;;3.10;99.90;;;;;;4110187;28;20058;-62
2023/03/03 03:32:22;;;;;;;70.28;30.10;;;2.80;99.90;;;;;;4113387;28;20035;-62
2023/03/03 03:34:22;;;;;;;64.15;28.17;;;2.50;99.90;;;;;;4100248;28;20072;-62
2023/03/03 03:36:23;;;;;;;55.78;25.58;;;2.40;99.90;;;;;;4111557;28;20061;-62
2023/03/03 03:38:25;;;;;;;58.13;26.05;;;2.20;99.90;;;;;;4109667;28;20070;-62
2023/03/03 03:40:26;;;;;;;;;;;2.00;99.90;;;;;;4107663;28;20422;-62
2023/03/03 03:42:27;;;;;;;55.20;24.02;;;2.10;99.90;;;;;;4111732;28;19910;-62
2023/03/03 03:44:27;;;;;;;54.58;24.65;;;2.00;99.90;;;;;;4111175;28;20138;-62
2023/03/03 03:46:28;;;;;;;52.08;23.75;;;2.00;99.90;;;;;;4112396;28;20066;-62
2023/03/03 03:48:29;;;;;;;57.50;24.45;;;2.10;99.90;;;;;;4111935;28;20193;-62
2023/03/03 03:50:29;;;;;;;48.70;22.80;;;2.00;99.90;;;;;;4110733;28;20497;-62
2023/03/03 03:52:30;;;;;;;49.33;22.23;;;2.20;99.90;;;;;;4114149;28;20035;-62
2023/03/03 03:54:30;;;;;;;50.83;22.20;;;2.40;99.90;;;;;;4109789;28;20070;-62
2023/03/03 03:56:31;;;;;;;51.08;22.88;;;2.60;99.90;;;;;;4109206;28;20105;-62
2023/03/03 03:58:31;;;;;;;45.97;21.98;;;2.70;99.90;;;;;;4111498;28;20085;-62
2023/03/03 04:00:32;;;;;;;41.60;20.63;;;2.80;99.90;;;;;;4110790;28;20085;-62
2023/03/03 04:02:33;;;;;;;45.20;21.40;;;2.90;99.90;;;;;;4110635;28;20129;-63
2023/03/03 04:04:34;;;;;;;44.92;22.30;;;3.00;99.90;;;;;;4112863;28;20066;-62
2023/03/03 04:06:34;;;;;;;47.80;22.05;;;3.10;99.90;;;;;;4109169;28;20035;-63
2023/03/03 04:08:35;;;;;;;51.17;22.77;;;3.20;99.90;;;;;;4114582;28;20512;-62
2023/03/03 04:10:36;;;;;;;50.15;22.95;;;3.30;99.90;;;;;;4115659;28;20452;-62
2023/03/03 04:12:39;;;;;;;56.47;25.80;;;3.30;99.90;;;;;;4118022;28;20134;-62
2023/03/03 04:14:40;;;;;;;56.67;26.02;;;3.00;99.90;;;;;;4112422;28;20042;-62
2023/03/03 04:16:40;;;;;;;49.55;23.48;;;3.10;99.90;;;;;;4109124;28;20928;-62
2023/03/03 04:18:41;;;;;;;50.10;23.95;;;3.10;99.90;;;;;;4115997;28;20053;-62
2023/03/03 04:20:42;;;;;;;50.17;24.00;;;3.20;99.90;;;;;;4109836;28;20027;-62
2023/03/03 04:22:43;;;;;;;52.03;23.73;;;3.20;99.90;;;;;;4115873;28;20038;-62
2023/03/03 04:24:43;;;;;;;53.08;24.00;;;3.30;99.90;;;;;;4112076;28;20027;-62
2023/03/03 04:26:44;;;;;;;53.92;24.48;;;3.30;99.90;;;;;;4108179;28;20043;-63
2023/03/03 04:28:45;;;;;;;57.80;25.95;;;3.40;99.90;;;;;;4095346;28;20070;-63
2023/03/03 04:30:46;;;;;;;53.63;25.88;;;3.30;99.90;;;;;;4114451;28;20503;-63
2023/03/03 04:32:46;;;;;;;52.45;23.13;;;3.20;99.90;;;;;;4120415;28;20050;-63
2023/03/03 04:34:47;;;;;;;54.50;24.58;;;3.30;99.90;;;;;;4113135;28;20049;-62
2023/03/03 04:36:47;;;;;;;58.88;24.67;;;3.30;99.90;;;;;;4114505;28;20462;-63
2023/03/03 04:38:48;;;;;;;56.33;24.25;;;3.30;99.90;;;;;;4120438;28;20051;-62
2023/03/03 04:40:49;;;;;;;49.00;23.52;;;3.30;99.90;;;;;;4119838;28;20046;-62
2023/03/03 04:42:50;;;;;;;48.47;22.88;;;3.40;99.90;;;;;;4113236;28;20033;-62
2023/03/03 04:44:50;;;;;;;46.47;22.60;;;3.40;99.90;;;;;;4116424;28;20505;-63
2023/03/03 04:46:51;;;;;;;55.42;25.15;;;3.40;99.90;;;;;;4111833;28;20369;-62
2023/03/03 04:48:52;;;;;;;53.33;24.45;;;3.40;99.90;;;;;;4116022;28;20043;-62
2023/03/03 04:50:53;;;;;;;49.42;25.08;;;3.50;99.90;;;;;;4115851;28;20122;-62
2023/03/03 04:52:53;;;;;;;49.45;23.58;;;3.50;99.90;;;;;;4115364;28;20121;-62
2023/03/03 04:54:54;;;;;;;51.03;24.05;;;3.60;99.90;;;;;;4121991;28;20427;-62
2023/03/03 04:56:54;;;;;;;55.75;24.88;;;3.60;99.90;;;;;;4112982;28;20536;-62
2023/03/03 04:58:55;;;;;;;54.88;25.33;;;3.60;99.90;;;;;;4115202;28;20070;-62
2023/03/03 05:00:56;;;;;;;52.35;24.73;;;3.50;99.90;;;;;;4108803;28;20490;-63
2023/03/03 05:02:58;;;;;;;48.65;23.58;;;3.60;99.90;;;;;;4113285;28;20038;-62
2023/03/03 05:04:58;;;;;;;54.20;25.55;;;3.60;99.90;;;;;;4112586;28;20409;-62
2023/03/03 05:06:59;;;;;;;56.67;24.80;;;3.50;99.90;;;;;;4110218;28;20121;-62
2023/03/03 05:09:00;;;;;;;52.75;24.30;;;3.50;99.90;;;;;;4114428;28;20035;-62
2023/03/03 05:11:01;;;;;;;47.15;22.90;;;3.50;99.90;;;;;;4110185;28;20038;-62
2023/03/03 05:13:01;;;;;;;52.58;25.05;;;3.60;99.90;;;;;;4111292;28;20036;-62
2023/03/03 05:15:03;;;;;;;57.90;26.27;;;3.60;99.90;;;;;;4112275;28;20142;-63
2023/03/03 05:17:04;;;;;;;54.03;25.08;;;3.60;99.90;;;;;;4111088;28;20070;-64
2023/03/03 05:19:05;;;;;;;57.63;26.65;;;3.50;99.90;;;;;;4113687;28;20445;-63
2023/03/03 05:21:06;;;;;;;60.17;27.70;;;3.40;99.90;;;;;;4115049;28;20030;-62
2023/03/03 05:23:06;;;;;;;56.72;26.83;;;3.40;99.90;;;;;;4112196;28;20393;-62
2023/03/03 05:25:09;;;;;;;57.78;26.50;;;3.50;99.90;;;;;;4115434;28;20482;-63
2023/03/03 05:27:10;;;;;;;;;;;3.40;99.90;;;;;;4117256;28;20035;-62
2023/03/03 05:29:11;;;;;;;60.08;26.05;;;3.30;99.90;;;;;;4113115;28;19910;-62
2023/03/03 05:31:11;;;;;;;60.80;26.88;;;3.30;99.90;;;;;;4117659;28;20476;-62
2023/03/03 05:33:15;;;;;;;63.88;27.63;;;3.30;99.90;;;;;;4117812;28;20385;-62
2023/03/03 05:35:15;;;;;;;56.20;26.48;;;3.40;99.90;;;;;;4115864;28;20047;-63
2023/03/03 05:37:16;;;;;;;56.53;26.58;;;3.30;99.90;;;;;;4118313;28;20095;-62
2023/03/03 05:39:17;;;;;;;59.40;27.30;;;3.30;99.90;;;;;;4119144;28;20050;-62
2023/03/03 05:41:17;;;;;;;61.78;27.55;;;3.40;99.90;;;;;;4113089;28;20126;-63
2023/03/03 05:43:18;;;;;;;55.88;25.15;;;3.40;99.90;;;;;;4111598;28;20043;-63
2023/03/03 05:45:20;;;;;;;52.97;24.10;;;3.40;99.90;;;;;;4113966;28;20034;-62
2023/03/03 05:47:20;;;;;;;64.03;28.17;;;3.50;99.90;;;;;;4115916;28;20047;-62
2023/03/03 05:49:21;;;;;;;59.78;27.23;;;3.50;99.90;;;;;;4091542;28;20418;-62
2023/03/03 05:51:21;;;;;;;57.33;25.25;;;3.50;99.90;;;;;;4119060;28;20035;-62
2023/03/03 05:53:22;;;;;;;58.67;26.08;;;3.60;99.90;;;;;;4113569;28;20038;-62
2023/03/03 05:55:22;;;;;;;56.47;25.02;;;3.70;99.90;;;;;;4111525;28;20043;-62
2023/03/03 05:57:23;;;;;;;53.67;25.20;;;3.70;99.90;;;;;;4112310;28;20319;-65
2023/03/03 05:59:24;;;;;;;52.60;24.67;;;3.70;99.90;;;;;;4109916;28;20080;-65
2023/03/03 06:01:25;;;;;;;56.78;26.48;;;3.70;99.90;;;;;;4112552;28;20514;-65
2023/03/03 06:03:26;;;;;;;51.95;23.58;;;3.60;99.90;;;;;;4104217;28;20146;-65
2023/03/03 06:05:27;;;;;;;52.05;24.05;;;3.50;99.90;;;;;;4112064;28;20042;-65
2023/03/03 06:07:27;;;;;;;48.15;23.10;;;3.50;99.90;;;;;;4111104;28;20385;-64
2023/03/03 06:09:28;;;;;;;49.75;23.92;;;3.50;99.90;;;;;;4110677;28;20047;-65
2023/03/03 06:11:28;;;;;;;52.13;24.85;;;3.40;99.90;;;;;;4116082;28;20039;-65
2023/03/03 06:13:29;;;;;;;50.28;23.60;;;3.40;99.90;;;;;;4122728;28;20110;-65
2023/03/03 06:15:30;;;;;;;49.58;23.90;;;3.40;99.90;;;;;;4111396;28;20058;-65
2023/03/03 06:17:30;;;;;;;50.35;23.95;;;3.50;99.90;;;;;;4118187;28;20549;-65
2023/03/03 06:19:31;;;;;;;49.15;22.48;;;3.50;99.90;;;;;;4115319;28;20047;-65
2023/03/03 06:21:31;;;;;;;51.65;22.98;;;3.50;99.90;;;;;;4117131;28;20466;-65
2023/03/03 06:23:32;;;;;;;48.97;22.20;;;3.50;99.90;;;;;;4109012;28;20045;-65
2023/03/03 06:25:34;;;;;;;51.08;22.95;;;3.50;99.90;;;;;;4112510;28;20027;-65
2023/03/03 06:27:35;;;;;;;53.13;22.80;;;3.50;99.90;;;;;;4113914;28;20043;-66
2023/03/03 06:29:35;;;;;;;50.22;23.40;;;3.50;99.90;;;;;;4113545;28;22730;-65
2023/03/03 06:31:36;;;;;;;52.92;24.85;;;3.60;99.90;;;;;;4107776;28;20123;-65
2023/03/03 06:33:37;;;;;;;63.88;28.13;;;3.60;99.90;;;;;;4110049;28;20039;-65
2023/03/03 06:35:37;;;;;;;62.95;27.50;;;3.70;99.90;;;;;;4110635;28;20069;-65
2023/03/03 06:37:38;;;;;;;55.63;25.77;;;3.50;99.90;;;;;;4115159;28;20122;-64
2023/03/03 06:39:39;;;;;;;49.70;22.98;;;3.50;99.90;;;;;;4112907;28;20118;-65
2023/03/03 06:41:39;;;;;;;53.60;24.20;;;3.40;99.90;;;;;;4112312;28;20030;-65
2023/03/03 06:43:40;;;;;;;47.45;22.13;;;3.50;99.90;;;;;;4115591;28;20062;-65
2023/03/03 06:45:42;;;;;;;47.92;22.35;;;3.60;99.90;;;;;;4110058;28;20038;-64
2023/03/03 06:47:42;;;;;;;58.65;25.02;;;3.50;99.90;;;;;;4112391;28;20391;-65
2023/03/03 06:49:43;;;;;;;59.38;26.40;;;3.40;99.90;;;;;;4117421;28;20054;-64
2023/03/03 06:51:45;;;;;;;51.78;22.08;;;3.30;99.90;;;;;;4115510;28;20046;-65
2023/03/03 06:53:47;;;;;;;47.88;21.58;;;3.30;99.90;;;;;;4114333;28;20384;-65
2023/03/03 06:55:48;;;;;;;53.38;21.95;;;3.30;99.90;;;;;;4110859;28;20035;-65
2023/03/03 06:57:48;;;;;;;54.13;23.35;;;3.30;99.90;;;;;;4109098;28;20052;-65
2023/03/03 06:59:53;;;;;;;47.05;21.30;;;3.30;99.90;;;;;;4108977;28;20724;-65
2023/03/03 07:01:53;;;;;;;47.92;22.25;;;3.30;99.90;;;;;;4110017;28;20042;-65
2023/03/03 07:03:54;;;;;;;45.65;20.90;;;3.30;99.90;;;;;;4112301;28;20043;-65
2023/03/03 07:05:55;;;;;;;64.15;25.58;;;3.30;99.90;;;;;;4108941;28;25124;-65
2023/03/03 07:07:56;;;;;;;61.17;27.48;;;3.00;99.90;;;;;;4112062;28;20049;-65
2023/03/03 07:09:57;;;;;;;83.00;34.30;;;3.00;99.90;;;;;;4113333;28;20045;-65
2023/03/03 07:12:05;;;;;;;72.03;30.50;;;2.80;99.90;;;;;;4107513;28;20469;-65
2023/03/03 07:14:15;;;;;;;55.28;23.90;;;2.60;99.90;;;;;;4111917;28;20031;-66
2023/03/03 07:16:18;;;;;;;46.22;20.02;;;2.80;99.90;;;;;;4109309;28;20050;-64
2023/03/03 07:18:41;;;;;;;46.70;21.38;;;2.80;99.90;;;;;;4114069;28;20504;-65
2023/03/03 07:20:42;;;;;;;43.85;19.98;;;3.00;99.90;;;;;;4100013;28;20042;-65
2023/03/03 07:22:43;;;;;;;44.97;20.17;;;3.10;99.90;;;;;;4105405;28;20049;-65
2023/03/03 07:24:45;;;;;;;53.47;22.48;;;3.10;99.90;;;;;;4103365;28;20039;-65
2023/03/03 07:26:46;;;;;;;57.40;25.27;;;3.00;99.90;;;;;;4102864;28;20043;-65
2023/03/03 07:28:56;;;;;;;60.78;24.60;;;2.80;99.90;;;;;;4102081;28;20125;-65
2023/03/03 07:30:58;;;;;;;59.05;22.85;;;2.60;99.90;;;;;;4103199;28;20039;-65
2023/03/03 07:32:59;;;;;;;49.03;21.00;;;2.60;99.90;;;;;;4104887;28;20043;-64
2023/03/03 07:35:00;;;;;;;52.28;21.77;;;2.60;99.90;;;;;;4102551;28;20385;-65
2023/03/03 07:37:08;;;;;;;55.15;23.63;;;2.60;99.90;;;;;;4102787;28;20058;-65
2023/03/03 07:39:29;;;;;;;58.78;24.60;;;2.50;99.90;;;;;;4101782;28;20061;-65
2023/03/03 07:41:33;;;;;;;57.45;24.88;;;2.30;99.90;;;;;;4101475;28;20118;-65
2023/03/03 07:43:34;;;;;;;52.05;22.92;;;2.30;99.90;;;;;;4101410;28;20158;-65
2023/03/03 07:45:36;;;;;;;51.75;21.10;;;2.30;99.90;;;;;;4098804;28;20059;-65
2023/03/03 07:47:38;;;;;;;51.60;21.55;;;2.30;99.90;;;;;;4104366;28;20566;-65
2023/03/03 07:49:39;;;;;;;49.28;21.05;;;2.20;99.90;;;;;;4100085;28;20065;-65
2023/03/03 07:51:42;;;;;;;45.08;20.38;;;2.30;99.90;;;;;;4103580;28;20038;-65
2023/03/03 07:53:43;;;;;;;46.33;20.77;;;2.30;99.90;;;;;;4100130;28;20035;-65
2023/03/03 07:55:44;;;;;;;46.17;20.60;;;2.30;99.90;;;;;;4103249;28;20057;-64
2023/03/03 07:57:45;;;;;;;52.63;22.02;;;2.30;99.90;;;;;;4102167;28;20050;-64
2023/03/03 07:59:47;;;;;;;47.25;20.52;;;2.30;99.90;;;;;;4099868;28;20042;-64
2023/03/03 08:01:56;;;;;;;48.35;20.60;;;2.30;99.90;;;;;;4104284;28;20069;-65
2023/03/03 08:03:57;;;;;;;51.50;21.48;;;2.30;99.90;;;;;;4100492;28;20059;-65
2023/03/03 08:06:02;;;;;;;49.08;20.38;;;2.40;99.90;;;;;;4102059;28;20049;-65
2023/03/03 08:08:08;;;;;;;50.35;21.75;;;2.40;99.90;;;;;;4104636;28;20043;-65
2023/03/03 08:10:33;;;;;;;45.92;20.25;;;2.40;99.90;;;;;;4100033;28;20054;-65
2023/03/03 08:12:39;;;;;;;52.47;20.95;;;2.40;99.90;;;;;;4105556;28;20039;-64
2023/03/03 08:14:40;;;;;;;45.88;20.70;;;2.40;99.90;;;;;;4101927;28;20039;-64
2023/03/03 08:16:41;;;;;;;50.47;21.58;;;2.40;99.90;;;;;;4102031;28;20047;-65
2023/03/03 08:18:46;;;;;;;51.85;21.58;;;2.30;99.90;;;;;;4104388;28;20035;-65
2023/03/03 08:20:49;;;;;;;46.72;20.33;;;2.40;99.90;;;;;;4102742;28;20469;-64
2023/03/03 08:22:50;;;;;;;49.65;20.98;;;2.50;99.90;;;;;;4104594;28;20035;-66
2023/03/03 08:24:50;;;;;;;57.78;23.65;;;2.50;99.90;;;;;;4101965;28;20190;-65
2023/03/03 08:26:51;;;;;;;52.28;22.17;;;2.50;99.90;;;;;;4103826;28;20105;-65
2023/03/03 08:28:52;;;;;;;56.03;22.45;;;2.50;99.90;;;;;;4104271;28;20073;-65
2023/03/03 08:30:53;;;;;;;50.75;21.65;;;2.40;99.90;;;;;;4101766;28;20042;-64
2023/03/03 08:32:53;;;;;;;57.05;22.85;;;2.50;99.90;;;;;;4102394;28;20053;-65
2023/03/03 08:34:54;;;;;;;51.05;21.40;;;2.50;99.90;;;;;;4102122;28;20039;-65
2023/03/03 08:36:57;;;;;;;53.80;22.10;;;2.60;99.90;;;;;;4101814;28;20073;-64
2023/03/03 08:38:57;;;;;;;;;;;2.60;99.90;;;;;;4102621;28;20047;-65
2023/03/03 08:40:58;;;;;;;52.00;20.65;;;2.60;99.90;;;;;;4099154;28;20358;-65
2023/03/03 08:42:59;;;;;;;50.58;21.25;;;2.70;99.90;;;;;;4102329;28;20090;-65
2023/03/03 08:44:59;;;;;;;46.30;20.52;;;2.70;99.90;;;;;;4102500;28;20111;-64
2023/03/03 08:47:00;;;;;;;48.55;20.20;;;2.80;99.90;;;;;;4100640;28;20044;-64
2023/03/03 08:49:00;;;;;;;50.10;21.30;;;2.80;99.90;;;;;;4104824;28;20118;-64
2023/03/03 08:51:01;;;;;;;48.95;21.58;;;2.80;99.90;;;;;;4099691;28;20655;-64
2023/03/03 08:53:02;;;;;;;52.90;21.73;;;2.80;99.90;;;;;;4102470;28;20628;-65
2023/03/03 08:55:03;;;;;;;52.22;22.67;;;2.80;99.90;;;;;;4104843;28;20047;-64
2023/03/03 08:57:03;;;;;;;44.35;19.52;;;2.80;99.90;;;;;;4104824;28;20039;-64
2023/03/03 08:59:04;;;;;;;48.47;20.83;;;2.80;99.90;;;;;;4105240;28;20051;-64
2023/03/03 09:01:04;;;;;;;47.08;20.30;;;2.90;99.90;;;;;;4103919;28;20050;-64
2023/03/03 09:03:06;;;;;;;44.38;19.60;;;2.90;99.90;;;;;;4103658;28;20039;-65
2023/03/03 09:05:08;;;;;;;55.00;21.63;;;3.00;99.90;;;;;;4105097;28;20035;-68
2023/03/03 09:07:09;;;;;;;50.15;19.52;;;2.80;99.90;;;;;;4105348;28;20049;-65
2023/03/03 09:09:10;;;;;;;47.60;19.98;;;2.80;99.90;;;;;;4105785;28;20047;-65
2023/03/03 09:11:23;;;;;;;43.55;18.65;;;2.70;99.90;;;;;;4104114;28;20056;-65
2023/03/03 09:13:24;;;;;;;42.95;18.75;;;2.80;99.90;;;;;;4103361;28;20105;-65
2023/03/03 09:15:28;;;;;;;46.42;19.27;;;2.90;99.90;;;;;;4101197;28;20793;-65
2023/03/03 09:17:34;;;;;;;49.10;20.45;;;2.80;99.90;;;;;;4088052;28;20039;-64
2023/03/03 09:19:36;;;;;;;45.80;19.50;;;2.80;99.90;;;;;;4105493;28;20054;-64
2023/03/03 09:21:36;;;;;;;48.17;20.67;;;2.80;99.90;;;;;;4104125;28;20130;-64
2023/03/03 09:23:40;;;;;;;44.03;18.58;;;2.80;99.90;;;;;;4108082;28;20122;-64
2023/03/03 09:25:40;;;;;;;51.85;20.55;;;3.00;99.90;;;;;;4104534;28;20039;-65
2023/03/03 09:27:41;;;;;;;44.38;18.95;;;3.00;99.90;;;;;;4107840;28;20121;-65
2023/03/03 09:29:41;;;;;;;45.15;19.70;;;3.10;99.90;;;;;;4107091;28;20053;-65
2023/03/03 09:31:44;;;;;;;48.97;19.35;;;3.10;99.90;;;;;;4102498;28;20445;-65
2023/03/03 09:33:48;;;;;;;46.80;20.85;;;3.10;99.90;;;;;;4106282;28;20043;-65
2023/03/03 09:35:52;;;;;;;46.45;20.13;;;3.10;99.90;;;;;;4105162;28;20048;-65
2023/03/03 09:37:53;;;;;;;40.65;17.65;;;3.10;99.90;;;;;;4106290;28;20053;-65
2023/03/03 09:39:56;;;;;;;42.22;19.38;;;3.30;99.90;;;;;;4105869;28;20505;-65
2023/03/03 09:42:15;;;;;;;40.72;17.55;;;3.40;99.90;;;;;;4105111;28;20042;-63
2023/03/03 09:44:31;;;;;;;37.60;17.67;;;3.50;99.90;;;;;;4103400;28;20062;-66
2023/03/03 09:46:57;;;;;;;45.88;18.77;;;3.60;99.90;;;;;;4100965;28;20613;-65
2023/03/03 09:49:22;;;;;;;43.15;18.80;;;3.50;99.90;;;;;;4104255;28;21098;-66
2023/03/03 09:51:39;;;;;;;42.45;17.73;;;3.40;99.90;;;;;;4102545;28;20118;-66
2023/03/03 09:53:57;;;;;;;44.65;18.45;;;3.30;99.90;;;;;;4103158;28;25577;-66
2023/03/03 09:56:07;;;;;;;43.40;18.20;;;3.20;99.90;;;;;;4102957;28;20158;-65
2023/03/03 09:58:35;;;;;;;43.20;18.33;;;3.10;99.90;;;;;;4100730;28;20047;-67
2023/03/03 10:01:01;;;;;;;39.60;16.98;;;3.20;99.90;;;;;;4101730;28;20070;-66
2023/03/03 10:03:20;;;;;;;43.70;18.15;;;3.30;99.90;;;;;;4076705;28;20185;-65
2023/03/03 10:05:45;;;;;;;44.03;17.25;;;3.20;99.90;;;;;;4105896;28;20042;-66
2023/03/03 10:08:09;;;;;;;43.20;17.38;;;3.30;99.90;;;;;;4103050;28;21105;-65
2023/03/03 10:10:34;;;;;;;44.05;17.17;;;3.40;99.90;;;;;;4077121;28;20023;-66
2023/03/03 10:13:02;;;;;;;39.88;17.27;;;3.50;99.90;;;;;;4105336;28;20468;-65
2023/03/03 10:15:27;;;;;;;47.92;19.35;;;3.60;99.90;;;;;;4103925;28;20039;-66
2023/03/03 10:17:43;;;;;;;43.22;16.58;;;3.60;99.90;;;;;;4105936;28;25071;-65
2023/03/03 10:19:49;;;;;;;34.10;15.35;;;3.60;99.90;;;;;;4102446;28;20130;-65
2023/03/03 10:21:59;;;;;;;48.25;18.85;;;3.70;99.90;;;;;;4104223;28;20113;-67
2023/03/03 10:24:27;;;;;;;48.25;19.48;;;3.50;99.90;;;;;;4105885;28;20046;-65
2023/03/03 10:26:45;;;;;;;46.38;18.95;;;3.40;99.90;;;;;;4102745;28;20122;-65
2023/03/03 10:29:02;;;;;;;44.25;18.08;;;3.30;99.90;;;;;;4103111;28;20039;-65
2023/03/03 10:31:20;;;;;;;41.00;15.98;;;3.30;99.90;;;;;;4103796;28;20042;-65
2023/03/03 10:33:37;;;;;;;38.22;15.55;;;3.40;99.90;;;;;;4103947;28;20045;-66
2023/03/03 10:35:52;;;;;;;38.75;16.10;;;3.50;99.90;;;;;;4102533;28;20039;-65
2023/03/03 10:38:26;;;;;;;40.67;16.80;;;3.60;99.90;;;;;;4100381;28;20110;-66